Time,TemperatureF,DewpointF,PressureIn,WindDirection,WindDirectionDegrees,WindSpeedMPH,WindSpeedGustMPH,Humidity,HourlyPrecipIn,Conditions,Clouds,dailyrainin,SoftwareType,DateUTC
2013-01-29 00:03:00,41.5,34.5,28.44,NNW,343,0.0,0.0,76,0.00,,,0.00,VWS V14.01,2013-01-29 06:03:00,
2013-01-29 00:08:00,41.5,34.5,28.44,NNW,343,0.0,0.0,76,0.00,,,0.00,VWS V14.01,2013-01-29 06:08:00,
2013-01-29 00:13:00,41.5,34.5,28.44,NNW,340,4.5,4.5,76,0.00,,,0.00,VWS V14.01,2013-01-29 06:13:00,
2013-01-29 00:18:00,41.5,34.5,28.44,WNW,290,10.1,10.1,76,0.00,,,0.00,VWS V14.01,2013-01-29 06:18:00,
2013-01-29 00:23:00,41.5,34.5,28.47,WNW,292,11.0,11.0,76,0.00,,,0.00,VWS V14.01,2013-01-29 06:23:00,
2013-01-29 00:28:00,41.4,34.4,28.47,NW,307,0.0,0.0,76,0.00,,,0.00,VWS V14.01,2013-01-29 06:28:00,
2013-01-29 00:33:00,41.4,34.4,28.47,WNW,297,8.1,8.1,76,0.00,,,0.00,VWS V14.01,2013-01-29 06:33:00,
2013-01-29 00:38:00,41.2,34.2,28.47,WNW,292,6.3,6.3,76,0.00,,,0.00,VWS V14.01,2013-01-29 06:38:00,
2013-01-29 00:43:00,41.0,34.0,28.47,West,279,8.3,8.3,76,0.00,,,0.00,VWS V14.01,2013-01-29 06:43:00,
2013-01-29 00:48:00,40.3,33.3,28.47,WNW,300,13.2,13.2,76,0.00,,,0.00,VWS V14.01,2013-01-29 06:48:00,
2013-01-29 00:53:00,40.3,33.3,28.47,WNW,295,6.3,6.3,76,0.00,,,0.00,VWS V14.01,2013-01-29 06:53:00,
2013-01-29 00:58:00,40.1,33.2,28.47,WNW,294,6.3,6.3,76,0.00,,,0.00,VWS V14.01,2013-01-29 06:58:00,
2013-01-29 01:03:00,39.9,33.0,28.47,WNW,303,7.6,7.6,76,0.00,,,0.00,VWS V14.01,2013-01-29 07:03:00,
2013-01-29 01:08:00,39.9,33.3,28.47,WNW,296,8.7,8.7,77,0.00,,,0.00,VWS V14.01,2013-01-29 07:08:00,
2013-01-29 01:13:00,39.9,33.3,28.47,WNW,301,6.7,6.7,77,0.00,,,0.00,VWS V14.01,2013-01-29 07:13:00,
2013-01-29 01:18:00,39.9,33.3,28.47,WNW,295,10.5,15.4,77,0.00,,,0.00,VWS V14.01,2013-01-29 07:18:00,
2013-01-29 01:23:00,39.7,33.1,28.47,NW,306,8.7,8.7,77,0.00,,,0.00,VWS V14.01,2013-01-29 07:23:00,
2013-01-29 01:28:00,39.4,32.8,28.47,WNW,291,11.0,11.0,77,0.00,,,0.00,VWS V14.01,2013-01-29 07:28:00,
2013-01-29 01:33:00,39.2,32.6,28.47,NW,324,9.6,9.6,77,0.00,,,0.00,VWS V14.01,2013-01-29 07:33:00,
2013-01-29 01:38:00,39.2,32.6,28.47,WNW,301,12.8,12.8,77,0.00,,,0.00,VWS V14.01,2013-01-29 07:38:00,
2013-01-29 01:43:00,38.5,31.6,28.47,NW,305,15.4,15.4,76,0.00,,,0.00,VWS V14.01,2013-01-29 07:43:00,
2013-01-29 01:48:00,38.1,31.2,28.47,WNW,302,16.8,16.8,76,0.00,,,0.00,VWS V14.01,2013-01-29 07:48:00,
2013-01-29 01:53:00,37.8,30.9,28.47,WNW,298,11.0,11.0,76,0.00,,,0.00,VWS V14.01,2013-01-29 07:53:00,
2013-01-29 01:58:00,37.4,30.2,28.47,NW,317,8.1,8.1,75,0.00,,,0.00,VWS V14.01,2013-01-29 07:58:00,
2013-01-29 02:03:00,37.4,30.2,28.47,WNW,301,8.7,8.7,75,0.00,,,0.00,VWS V14.01,2013-01-29 08:03:00,
2013-01-29 02:08:00,37.4,30.2,28.47,NW,322,11.0,11.0,75,0.00,,,0.00,VWS V14.01,2013-01-29 08:08:00,
2013-01-29 02:13:00,37.0,29.9,28.47,NW,311,13.6,13.6,75,0.00,,,0.00,VWS V14.01,2013-01-29 08:13:00,
2013-01-29 02:18:00,36.7,29.5,28.47,NW,316,15.0,15.0,75,0.00,,,0.00,VWS V14.01,2013-01-29 08:18:00,
2013-01-29 02:23:00,36.5,29.0,28.50,NW,304,10.5,10.5,74,0.00,,,0.00,VWS V14.01,2013-01-29 08:23:00,
2013-01-29 02:28:00,36.5,29.0,28.50,NW,307,12.3,12.3,74,0.00,,,0.00,VWS V14.01,2013-01-29 08:28:00,
2013-01-29 02:33:00,36.5,29.0,28.50,WNW,300,16.8,16.8,74,0.00,,,0.00,VWS V14.01,2013-01-29 08:33:00,
2013-01-29 02:38:00,36.0,28.2,28.50,NW,306,10.1,10.1,73,0.00,,,0.00,VWS V14.01,2013-01-29 08:38:00,
2013-01-29 02:43:00,36.0,28.2,28.50,NNW,329,10.1,10.1,73,0.00,,,0.00,VWS V14.01,2013-01-29 08:43:00,
2013-01-29 02:48:00,35.8,27.6,28.50,NW,310,8.7,8.7,72,0.00,,,0.00,VWS V14.01,2013-01-29 08:48:00,
2013-01-29 02:53:00,35.8,27.6,28.50,WNW,297,15.4,15.4,72,0.00,,,0.00,VWS V14.01,2013-01-29 08:53:00,
2013-01-29 02:58:00,35.8,27.3,28.50,WNW,303,7.6,7.6,71,0.00,,,0.00,VWS V14.01,2013-01-29 08:58:00,
2013-01-29 03:03:00,35.8,27.3,28.50,NNW,327,12.8,12.8,71,0.00,,,0.00,VWS V14.01,2013-01-29 09:03:00,
2013-01-29 03:08:00,35.8,27.3,28.50,NNW,327,12.8,12.8,71,0.00,,,0.00,VWS V14.01,2013-01-29 09:08:00,
2013-01-29 03:13:00,35.6,26.8,28.50,WNW,285,10.1,10.1,70,0.00,,,0.00,VWS V14.01,2013-01-29 09:13:00,
2013-01-29 03:18:00,35.6,26.8,28.50,NW,325,10.1,10.1,70,0.00,,,0.00,VWS V14.01,2013-01-29 09:18:00,
2013-01-29 03:23:00,35.6,26.8,28.53,NW,314,11.0,11.0,70,0.00,,,0.00,VWS V14.01,2013-01-29 09:23:00,
2013-01-29 03:28:00,35.4,26.6,28.53,NW,310,8.7,8.7,70,0.00,,,0.00,VWS V14.01,2013-01-29 09:28:00,
2013-01-29 03:33:00,35.4,26.3,28.53,WNW,302,13.2,13.2,69,0.00,,,0.00,VWS V14.01,2013-01-29 09:33:00,
2013-01-29 03:38:00,35.1,25.9,28.50,NW,314,10.1,10.1,69,0.00,,,0.00,VWS V14.01,2013-01-29 09:38:00,
2013-01-29 03:43:00,34.9,25.4,28.50,WNW,303,10.5,15.0,68,0.00,,,0.00,VWS V14.01,2013-01-29 09:43:00,
2013-01-29 03:48:00,34.9,25.0,28.50,NW,326,11.0,11.0,67,0.00,,,0.00,VWS V14.01,2013-01-29 09:48:00,
2013-01-29 03:53:00,34.9,25.0,28.50,NW,309,8.7,8.7,67,0.00,,,0.00,VWS V14.01,2013-01-29 09:53:00,
2013-01-29 03:58:00,34.5,24.4,28.50,NW,316,6.3,6.3,66,0.00,,,0.00,VWS V14.01,2013-01-29 09:58:00,
2013-01-29 04:03:00,34.5,23.6,28.50,WNW,301,8.7,8.7,64,0.00,,,0.00,VWS V14.01,2013-01-29 10:03:00,
2013-01-29 04:08:00,34.3,23.1,28.50,NW,324,7.6,7.6,63,0.00,,,0.00,VWS V14.01,2013-01-29 10:08:00,
2013-01-29 04:13:00,34.2,22.9,28.50,NW,305,5.4,5.4,63,0.00,,,0.00,VWS V14.01,2013-01-29 10:13:00,
2013-01-29 04:18:00,34.2,22.9,28.50,NW,316,3.6,3.6,63,0.00,,,0.00,VWS V14.01,2013-01-29 10:18:00,
2013-01-29 04:23:00,34.2,23.6,28.53,WNW,294,8.1,8.1,65,0.00,,,0.00,VWS V14.01,2013-01-29 10:23:00,
2013-01-29 04:28:00,34.2,23.6,28.53,WNW,300,5.8,5.8,65,0.00,,,0.00,VWS V14.01,2013-01-29 10:28:00,
2013-01-29 04:33:00,34.2,23.6,28.53,WNW,286,4.9,7.6,65,0.00,,,0.00,VWS V14.01,2013-01-29 10:33:00,
2013-01-29 04:38:00,34.2,23.6,28.53,West,275,5.8,5.8,65,0.00,,,0.00,VWS V14.01,2013-01-29 10:38:00,
2013-01-29 04:43:00,34.0,23.5,28.53,WNW,286,10.1,10.1,65,0.00,,,0.00,VWS V14.01,2013-01-29 10:43:00,
2013-01-29 04:47:00,34.0,23.1,28.53,NW,308,12.8,12.8,64,0.00,,,0.00,VWS V14.01,2013-01-29 10:47:00,
2013-01-29 04:53:00,34.0,23.1,28.53,NW,304,5.8,12.8,64,0.00,,,0.00,VWS V14.01,2013-01-29 10:53:00,
2013-01-29 04:57:00,34.0,22.4,28.53,WNW,290,6.3,6.3,62,0.00,,,0.00,VWS V14.01,2013-01-29 10:57:00,
2013-01-29 05:02:00,34.0,22.4,28.53,West,281,8.1,8.1,62,0.00,,,0.00,VWS V14.01,2013-01-29 11:02:00,
2013-01-29 05:07:00,34.0,22.4,28.53,NW,310,8.7,8.7,62,0.00,,,0.00,VWS V14.01,2013-01-29 11:07:00,
2013-01-29 05:12:00,34.0,21.2,28.53,NW,306,5.8,7.6,59,0.00,,,0.00,VWS V14.01,2013-01-29 11:12:00,
2013-01-29 05:17:00,34.0,20.4,28.53,NW,304,8.1,8.1,57,0.00,,,0.00,VWS V14.01,2013-01-29 11:17:00,
2013-01-29 05:22:00,34.0,19.1,28.53,WNW,293,8.3,8.3,54,0.00,,,0.00,VWS V14.01,2013-01-29 11:22:00,
2013-01-29 05:27:00,34.0,18.7,28.53,NW,306,8.3,11.0,53,0.00,,,0.00,VWS V14.01,2013-01-29 11:27:00,
2013-01-29 05:32:00,34.0,18.2,28.53,NW,306,8.3,8.3,52,0.00,,,0.00,VWS V14.01,2013-01-29 11:32:00,
2013-01-29 05:37:00,34.0,18.2,28.50,NW,315,11.9,11.9,52,0.00,,,0.00,VWS V14.01,2013-01-29 11:37:00,
2013-01-29 05:42:00,34.0,17.8,28.50,NNW,333,7.6,7.6,51,0.00,,,0.00,VWS V14.01,2013-01-29 11:42:00,
2013-01-29 05:47:00,33.8,17.6,28.50,NW,305,5.8,7.6,51,0.00,,,0.00,VWS V14.01,2013-01-29 11:47:00,
2013-01-29 05:52:00,34.0,17.8,28.50,WNW,295,10.1,11.9,51,0.00,,,0.00,VWS V14.01,2013-01-29 11:52:00,
2013-01-29 05:57:00,34.0,17.8,28.50,WNW,295,10.1,10.1,51,0.00,,,0.00,VWS V14.01,2013-01-29 11:57:00,
2013-01-29 06:02:00,33.8,17.1,28.50,NW,310,4.0,4.0,50,0.00,,,0.00,VWS V14.01,2013-01-29 12:02:00,
2013-01-29 06:07:00,34.0,17.8,28.53,WNW,291,5.4,5.4,51,0.00,,,0.00,VWS V14.01,2013-01-29 12:07:00,
2013-01-29 06:12:00,34.0,17.8,28.53,NW,316,5.8,5.8,51,0.00,,,0.00,VWS V14.01,2013-01-29 12:12:00,
2013-01-29 06:17:00,33.8,17.1,28.53,NW,324,7.6,7.6,50,0.00,,,0.00,VWS V14.01,2013-01-29 12:17:00,
2013-01-29 06:22:00,33.8,17.1,28.50,NW,306,6.3,6.3,50,0.00,,,0.00,VWS V14.01,2013-01-29 12:22:00,
2013-01-29 06:27:00,33.8,17.1,28.50,NW,323,6.3,6.3,50,0.00,,,0.00,VWS V14.01,2013-01-29 12:27:00,
2013-01-29 06:32:00,33.8,17.6,28.50,WNW,288,3.6,5.8,51,0.00,,,0.00,VWS V14.01,2013-01-29 12:32:00,
2013-01-29 06:37:00,33.8,17.1,28.50,West,279,5.8,5.8,50,0.00,,,0.00,VWS V14.01,2013-01-29 12:37:00,
2013-01-29 06:42:00,33.8,16.7,28.53,WNW,298,8.3,8.3,49,0.00,,,0.00,VWS V14.01,2013-01-29 12:42:00,
2013-01-29 06:47:00,33.8,16.7,28.53,WNW,302,5.8,5.8,49,0.00,,,0.00,VWS V14.01,2013-01-29 12:47:00,
2013-01-29 06:52:00,33.8,16.7,28.53,WNW,302,5.8,5.8,49,0.00,,,0.00,VWS V14.01,2013-01-29 12:52:00,
2013-01-29 06:57:00,33.8,16.7,28.53,WNW,286,8.3,8.3,49,0.00,,,0.00,VWS V14.01,2013-01-29 12:57:00,
2013-01-29 07:02:00,33.8,16.7,28.53,NW,307,5.4,5.4,49,0.00,,,0.00,VWS V14.01,2013-01-29 13:02:00,
2013-01-29 07:07:00,33.6,16.5,28.53,NW,308,7.6,7.6,49,0.00,,,0.00,VWS V14.01,2013-01-29 13:07:00,
2013-01-29 07:12:00,33.6,15.6,28.53,NW,313,5.4,8.1,47,0.00,,,0.00,VWS V14.01,2013-01-29 13:12:00,
2013-01-29 07:17:00,33.6,15.6,28.53,NNW,335,6.3,6.3,47,0.00,,,0.00,VWS V14.01,2013-01-29 13:17:00,
2013-01-29 07:22:00,33.4,14.9,28.53,NW,310,7.6,7.6,46,0.00,,,0.00,VWS V14.01,2013-01-29 13:22:00,
2013-01-29 07:27:00,33.4,14.9,28.53,NW,309,8.7,8.7,46,0.00,,,0.00,VWS V14.01,2013-01-29 13:27:00,
2013-01-29 07:32:00,33.4,14.9,28.53,NW,309,8.7,8.7,46,0.00,,,0.00,VWS V14.01,2013-01-29 13:32:00,
2013-01-29 07:37:00,33.4,14.9,28.56,NW,307,7.6,7.6,46,0.00,,,0.00,VWS V14.01,2013-01-29 13:37:00,
2013-01-29 07:42:00,33.4,14.9,28.56,WNW,303,6.3,6.3,46,0.00,,,0.00,VWS V14.01,2013-01-29 13:42:00,
2013-01-29 07:47:00,33.4,14.9,28.56,NW,307,8.7,8.7,46,0.00,,,0.00,VWS V14.01,2013-01-29 13:47:00,
2013-01-29 07:52:00,33.4,13.9,28.56,NW,311,8.3,8.3,44,0.00,,,0.00,VWS V14.01,2013-01-29 13:52:00,
2013-01-29 07:57:00,33.4,14.4,28.56,NW,311,8.3,8.3,45,0.00,,,0.00,VWS V14.01,2013-01-29 13:57:00,
2013-01-29 08:02:00,33.4,13.9,28.56,NW,306,8.1,8.1,44,0.00,,,0.00,VWS V14.01,2013-01-29 14:02:00,
2013-01-29 08:07:00,33.4,14.4,28.56,NW,318,5.8,5.8,45,0.00,,,0.00,VWS V14.01,2013-01-29 14:07:00,
2013-01-29 08:12:00,33.4,14.4,28.56,NW,308,10.5,10.5,45,0.00,,,0.00,VWS V14.01,2013-01-29 14:12:00,
2013-01-29 08:17:00,33.4,14.4,28.56,NNW,330,7.6,7.6,45,0.00,,,0.00,VWS V14.01,2013-01-29 14:17:00,
2013-01-29 08:22:00,33.4,14.4,28.56,NW,305,5.4,5.4,45,0.00,,,0.00,VWS V14.01,2013-01-29 14:22:00,
2013-01-29 08:27:00,33.4,14.4,28.56,NW,309,10.5,10.5,45,0.00,,,0.00,VWS V14.01,2013-01-29 14:27:00,
2013-01-29 08:32:00,33.4,13.9,28.56,NW,310,8.7,8.7,44,0.00,,,0.00,VWS V14.01,2013-01-29 14:32:00,
2013-01-29 08:37:00,33.4,13.9,28.56,NW,314,11.4,11.4,44,0.00,,,0.00,VWS V14.01,2013-01-29 14:37:00,
2013-01-29 08:42:00,33.4,13.9,28.56,NW,312,5.8,5.8,44,0.00,,,0.00,VWS V14.01,2013-01-29 14:42:00,
2013-01-29 08:47:00,33.4,13.9,28.56,NW,319,8.3,8.3,44,0.00,,,0.00,VWS V14.01,2013-01-29 14:47:00,
2013-01-29 08:52:00,33.4,13.9,28.56,WNW,303,5.8,5.8,44,0.00,,,0.00,VWS V14.01,2013-01-29 14:52:00,
2013-01-29 08:57:00,33.4,13.9,28.56,WNW,299,8.3,8.3,44,0.00,,,0.00,VWS V14.01,2013-01-29 14:57:00,
2013-01-29 09:02:00,33.4,13.4,28.56,NW,308,8.3,13.2,43,0.00,,,0.00,VWS V14.01,2013-01-29 15:02:00,
2013-01-29 09:07:00,33.6,14.1,28.56,West,279,6.3,6.3,44,0.00,,,0.00,VWS V14.01,2013-01-29 15:07:00,
2013-01-29 09:12:00,33.6,14.1,28.56,NNW,333,10.5,10.5,44,0.00,,,0.00,VWS V14.01,2013-01-29 15:12:00,
2013-01-29 09:17:00,33.6,13.5,28.56,WNW,286,10.5,10.5,43,0.00,,,0.00,VWS V14.01,2013-01-29 15:17:00,
2013-01-29 09:22:00,33.6,13.5,28.56,NNW,330,7.6,7.6,43,0.00,,,0.00,VWS V14.01,2013-01-29 15:22:00,
2013-01-29 09:27:00,33.6,13.5,28.56,NW,318,8.1,8.1,43,0.00,,,0.00,VWS V14.01,2013-01-29 15:27:00,
2013-01-29 09:32:00,33.8,13.7,28.56,NW,313,8.3,8.3,43,0.00,,,0.00,VWS V14.01,2013-01-29 15:32:00,
2013-01-29 09:37:00,33.8,13.7,28.56,NW,310,10.1,10.1,43,0.00,,,0.00,VWS V14.01,2013-01-29 15:37:00,
2013-01-29 09:42:00,33.8,13.1,28.56,NW,311,8.3,8.3,42,0.00,,,0.00,VWS V14.01,2013-01-29 15:42:00,
2013-01-29 09:47:00,33.8,13.1,28.56,NW,311,4.9,4.9,42,0.00,,,0.00,VWS V14.01,2013-01-29 15:47:00,
2013-01-29 09:52:00,34.2,13.5,28.56,NNW,336,7.6,7.6,42,0.00,,,0.00,VWS V14.01,2013-01-29 15:52:00,
2013-01-29 09:57:00,34.2,13.5,28.56,NW,319,7.6,7.6,42,0.00,,,0.00,VWS V14.01,2013-01-29 15:57:00,
2013-01-29 10:02:00,34.3,13.6,28.56,North,0,8.1,8.1,42,0.00,,,0.00,VWS V14.01,2013-01-29 16:02:00,
2013-01-29 10:07:00,34.5,13.3,28.56,NW,320,8.1,8.1,41,0.00,,,0.00,VWS V14.01,2013-01-29 16:07:00,
2013-01-29 10:12:00,34.5,13.3,28.56,NNW,344,6.3,6.3,41,0.00,,,0.00,VWS V14.01,2013-01-29 16:12:00,
2013-01-29 10:17:00,34.5,13.3,28.56,North,353,8.1,8.1,41,0.00,,,0.00,VWS V14.01,2013-01-29 16:17:00,
2013-01-29 10:22:00,34.3,13.1,28.56,North,8,8.1,8.1,41,0.00,,,0.00,VWS V14.01,2013-01-29 16:22:00,
2013-01-29 10:27:00,34.2,12.9,28.56,NNW,334,6.3,6.3,41,0.00,,,0.00,VWS V14.01,2013-01-29 16:27:00,
2013-01-29 10:32:00,34.2,12.9,28.56,NW,324,8.3,10.1,41,0.00,,,0.00,VWS V14.01,2013-01-29 16:32:00,
2013-01-29 10:37:00,34.2,12.9,28.56,NW,322,8.7,8.7,41,0.00,,,0.00,VWS V14.01,2013-01-29 16:37:00,
2013-01-29 10:42:00,34.2,12.9,28.56,NW,316,8.7,8.7,41,0.00,,,0.00,VWS V14.01,2013-01-29 16:42:00,
2013-01-29 10:47:00,34.2,12.9,28.56,NNW,339,7.6,7.6,41,0.00,,,0.00,VWS V14.01,2013-01-29 16:47:00,
2013-01-29 10:52:00,34.0,12.8,28.56,NW,325,10.5,10.5,41,0.00,,,0.00,VWS V14.01,2013-01-29 16:52:00,
2013-01-29 10:57:00,34.0,12.8,28.56,North,350,7.6,7.6,41,0.00,,,0.00,VWS V14.01,2013-01-29 16:57:00,
2013-01-29 11:02:00,34.0,12.8,28.56,NNW,335,8.3,8.3,41,0.00,,,0.00,VWS V14.01,2013-01-29 17:02:00,
2013-01-29 11:07:00,34.0,12.8,28.56,NNW,345,4.0,5.4,41,0.00,,,0.00,VWS V14.01,2013-01-29 17:07:00,
2013-01-29 11:12:00,33.8,12.6,28.56,NNW,339,8.3,8.3,41,0.00,,,0.00,VWS V14.01,2013-01-29 17:12:00,
2013-01-29 11:17:00,34.0,12.8,28.56,NW,324,5.4,5.4,41,0.00,,,0.00,VWS V14.01,2013-01-29 17:17:00,
2013-01-29 11:22:00,34.0,12.8,28.56,NNW,333,8.1,8.1,41,0.00,,,0.00,VWS V14.01,2013-01-29 17:22:00,
2013-01-29 11:27:00,34.0,12.8,28.56,NW,322,6.3,8.7,41,0.00,,,0.00,VWS V14.01,2013-01-29 17:27:00,
2013-01-29 11:32:00,34.0,12.8,28.56,NNW,327,6.3,6.3,41,0.00,,,0.00,VWS V14.01,2013-01-29 17:32:00,
2013-01-29 11:53:00,34.0,13.3,28.53,NNW,329,8.7,8.7,42,0.00,,,0.00,VWS V14.01,2013-01-29 17:53:00,
2013-01-29 11:58:00,33.8,12.6,28.53,NW,324,10.5,10.5,41,0.00,,,0.00,VWS V14.01,2013-01-29 17:58:00,
2013-01-29 12:03:00,33.8,12.6,28.53,NNW,345,8.7,8.7,41,0.00,,,0.00,VWS V14.01,2013-01-29 18:03:00,
2013-01-29 12:08:00,33.8,12.6,28.53,NW,324,10.5,10.5,41,0.00,,,0.00,VWS V14.01,2013-01-29 18:08:00,
2013-01-29 12:13:00,33.8,12.6,28.53,NNW,330,8.7,12.8,41,0.00,,,0.00,VWS V14.01,2013-01-29 18:13:00,
2013-01-29 12:18:00,33.8,12.6,28.53,North,353,8.7,8.7,41,0.00,,,0.00,VWS V14.01,2013-01-29 18:18:00,
2013-01-29 12:23:00,33.8,12.6,28.53,North,353,7.6,7.6,41,0.00,,,0.00,VWS V14.01,2013-01-29 18:23:00,
2013-01-29 12:28:00,34.0,12.8,28.53,North,353,10.1,10.1,41,0.00,,,0.00,VWS V14.01,2013-01-29 18:28:00,
2013-01-29 12:33:00,33.8,12.6,28.53,North,357,8.1,8.1,41,0.00,,,0.00,VWS V14.01,2013-01-29 18:33:00,
2013-01-29 12:38:00,33.8,12.6,28.53,NW,324,5.8,7.6,41,0.00,,,0.00,VWS V14.01,2013-01-29 18:38:00,
2013-01-29 12:43:00,33.8,12.6,28.53,NNW,333,8.1,8.1,41,0.00,,,0.00,VWS V14.01,2013-01-29 18:43:00,
2013-01-29 12:48:00,33.8,12.6,28.53,NW,315,12.3,12.3,41,0.00,,,0.00,VWS V14.01,2013-01-29 18:48:00,
2013-01-29 12:53:00,33.8,12.6,28.53,NW,321,14.1,14.1,41,0.00,,,0.00,VWS V14.01,2013-01-29 18:53:00,
2013-01-29 12:58:00,33.8,12.6,28.53,North,353,8.3,8.7,41,0.00,,,0.00,VWS V14.01,2013-01-29 18:58:00,
2013-01-29 13:03:00,33.8,13.1,28.53,NNW,327,8.3,8.3,42,0.00,,,0.00,VWS V14.01,2013-01-29 19:03:00,
2013-01-29 13:08:00,33.8,13.1,28.50,NNW,338,10.1,10.1,42,0.00,,,0.00,VWS V14.01,2013-01-29 19:08:00,
2013-01-29 13:13:00,33.6,13.0,28.50,NNW,328,7.6,7.6,42,0.00,,,0.00,VWS V14.01,2013-01-29 19:13:00,
2013-01-29 13:18:00,33.6,13.0,28.50,NW,320,8.7,8.7,42,0.00,,,0.00,VWS V14.01,2013-01-29 19:18:00,
2013-01-29 13:23:00,33.8,12.6,28.50,NNW,345,8.7,8.7,41,0.00,,,0.00,VWS V14.01,2013-01-29 19:23:00,
2013-01-29 13:28:00,33.6,12.4,28.50,North,353,7.6,8.7,41,0.00,,,0.00,VWS V14.01,2013-01-29 19:28:00,
2013-01-29 13:33:00,33.6,12.4,28.50,NNW,331,12.8,12.8,41,0.00,,,0.00,VWS V14.01,2013-01-29 19:33:00,
2013-01-29 13:38:00,33.6,12.4,28.50,NNW,341,10.5,12.3,41,0.00,,,0.00,VWS V14.01,2013-01-29 19:38:00,
2013-01-29 13:43:00,33.4,12.3,28.50,NNW,345,10.5,10.5,41,0.00,,,0.00,VWS V14.01,2013-01-29 19:43:00,
2013-01-29 13:48:00,33.4,12.3,28.50,NNW,344,12.8,12.8,41,0.00,,,0.00,VWS V14.01,2013-01-29 19:48:00,
2013-01-29 13:53:00,33.6,13.0,28.50,NNW,332,12.3,12.3,42,0.00,,,0.00,VWS V14.01,2013-01-29 19:53:00,
2013-01-29 13:58:00,33.6,13.0,28.50,NW,312,10.5,10.5,42,0.00,,,0.00,VWS V14.01,2013-01-29 19:58:00,
2013-01-29 14:03:00,33.6,13.0,28.50,NNW,343,11.4,11.4,42,0.00,,,0.00,VWS V14.01,2013-01-29 20:03:00,
2013-01-29 14:08:00,33.6,13.0,28.50,NW,325,6.3,6.3,42,0.00,,,0.00,VWS V14.01,2013-01-29 20:08:00,
2013-01-29 14:13:00,33.6,13.0,28.50,NNW,342,8.1,8.1,42,0.00,,,0.00,VWS V14.01,2013-01-29 20:13:00,
2013-01-29 14:18:00,33.8,13.1,28.50,NW,326,10.1,10.1,42,0.00,,,0.00,VWS V14.01,2013-01-29 20:18:00,
2013-01-29 14:23:00,33.8,12.6,28.50,NNW,333,12.3,12.3,41,0.00,,,0.00,VWS V14.01,2013-01-29 20:23:00,
2013-01-29 14:28:00,34.0,12.8,28.50,NNW,339,10.1,10.1,41,0.00,,,0.00,VWS V14.01,2013-01-29 20:28:00,
2013-01-29 14:33:00,34.0,12.8,28.50,NNW,335,8.7,8.7,41,0.00,,,0.00,VWS V14.01,2013-01-29 20:33:00,
2013-01-29 14:38:00,34.0,12.8,28.50,NNW,337,9.2,9.2,41,0.00,,,0.00,VWS V14.01,2013-01-29 20:38:00,
2013-01-29 14:43:00,34.2,12.9,28.50,NNW,340,5.4,5.4,41,0.00,,,0.00,VWS V14.01,2013-01-29 20:43:00,
2013-01-29 14:48:00,34.2,12.4,28.50,NW,323,7.6,7.6,40,0.00,,,0.00,VWS V14.01,2013-01-29 20:48:00,
2013-01-29 14:53:00,34.2,12.4,28.50,NNW,339,15.9,15.9,40,0.00,,,0.00,VWS V14.01,2013-01-29 20:53:00,
2013-01-29 14:58:00,34.3,12.5,28.50,NNW,345,16.3,16.3,40,0.00,,,0.00,VWS V14.01,2013-01-29 20:58:00,
2013-01-29 15:03:00,34.3,12.5,28.50,North,0,8.1,8.1,40,0.00,,,0.00,VWS V14.01,2013-01-29 21:03:00,
2013-01-29 15:08:00,34.3,12.5,28.50,NNW,334,11.0,11.0,40,0.00,,,0.00,VWS V14.01,2013-01-29 21:08:00,
2013-01-29 15:13:00,34.3,12.5,28.50,NW,314,13.2,13.2,40,0.00,,,0.00,VWS V14.01,2013-01-29 21:13:00,
2013-01-29 15:18:00,34.3,12.5,28.50,NNW,335,7.2,7.2,40,0.00,,,0.00,VWS V14.01,2013-01-29 21:18:00,
2013-01-29 15:23:00,34.3,12.5,28.50,North,2,5.8,5.8,40,0.00,,,0.00,VWS V14.01,2013-01-29 21:23:00,
2013-01-29 15:28:00,34.5,12.7,28.50,North,0,5.4,5.4,40,0.00,,,0.00,VWS V14.01,2013-01-29 21:28:00,
2013-01-29 15:33:00,34.5,12.7,28.50,North,353,16.3,16.3,40,0.00,,,0.00,VWS V14.01,2013-01-29 21:33:00,
2013-01-29 15:38:00,34.5,12.7,28.50,NNW,338,10.5,10.5,40,0.00,,,0.00,VWS V14.01,2013-01-29 21:38:00,
2013-01-29 15:43:00,34.5,12.7,28.50,NNW,331,4.9,4.9,40,0.00,,,0.00,VWS V14.01,2013-01-29 21:43:00,
2013-01-29 15:48:00,34.5,12.7,28.50,NNE,29,8.7,8.7,40,0.00,,,0.00,VWS V14.01,2013-01-29 21:48:00,
2013-01-29 15:53:00,34.5,12.7,28.50,NNW,339,8.3,8.3,40,0.00,,,0.00,VWS V14.01,2013-01-29 21:53:00,
2013-01-29 15:58:00,34.7,12.9,28.50,NNW,343,10.1,10.1,40,0.00,,,0.00,VWS V14.01,2013-01-29 21:58:00,
2013-01-29 16:03:00,34.7,12.9,28.50,North,353,7.2,7.2,40,0.00,,,0.00,VWS V14.01,2013-01-29 22:03:00,
2013-01-29 16:08:00,34.7,12.9,28.50,NNW,343,10.5,10.5,40,0.00,,,0.00,VWS V14.01,2013-01-29 22:08:00,
2013-01-29 16:13:00,34.7,12.9,28.50,North,2,8.3,8.3,40,0.00,,,0.00,VWS V14.01,2013-01-29 22:13:00,
2013-01-29 16:18:00,34.9,13.0,28.50,NNW,333,10.1,10.1,40,0.00,,,0.00,VWS V14.01,2013-01-29 22:18:00,
2013-01-29 16:23:00,34.9,13.0,28.50,North,5,9.6,9.6,40,0.00,,,0.00,VWS V14.01,2013-01-29 22:23:00,
2013-01-29 16:28:00,35.1,13.2,28.50,NNW,338,8.7,8.7,40,0.00,,,0.00,VWS V14.01,2013-01-29 22:28:00,
2013-01-29 16:33:00,35.1,13.2,28.50,NNW,340,6.3,6.3,40,0.00,,,0.00,VWS V14.01,2013-01-29 22:33:00,
2013-01-29 16:38:00,35.1,13.2,28.50,North,0,10.1,10.1,40,0.00,,,0.00,VWS V14.01,2013-01-29 22:38:00,
2013-01-29 16:43:00,35.1,13.2,28.50,NNW,345,6.3,6.3,40,0.00,,,0.00,VWS V14.01,2013-01-29 22:43:00,
2013-01-29 16:48:00,35.1,13.2,28.50,NW,317,6.3,6.3,40,0.00,,,0.00,VWS V14.01,2013-01-29 22:48:00,
2013-01-29 16:53:00,35.1,13.2,28.50,NNW,332,10.1,10.1,40,0.00,,,0.00,VWS V14.01,2013-01-29 22:53:00,
2013-01-29 16:58:00,35.1,13.2,28.50,North,349,10.1,10.1,40,0.00,,,0.00,VWS V14.01,2013-01-29 22:58:00,
2013-01-29 17:03:00,35.1,13.2,28.50,NNW,344,5.8,5.8,40,0.00,,,0.00,VWS V14.01,2013-01-29 23:03:00,
2013-01-29 17:08:00,35.1,13.2,28.50,NNW,341,5.8,5.8,40,0.00,,,0.00,VWS V14.01,2013-01-29 23:08:00,
2013-01-29 17:13:00,35.1,13.2,28.50,NNW,345,7.6,7.6,40,0.00,,,0.00,VWS V14.01,2013-01-29 23:13:00,
2013-01-29 17:18:00,35.2,13.4,28.50,NW,325,7.6,7.6,40,0.00,,,0.00,VWS V14.01,2013-01-29 23:18:00,
2013-01-29 17:23:00,35.4,14.1,28.50,North,353,7.6,7.6,41,0.00,,,0.00,VWS V14.01,2013-01-29 23:23:00,
2013-01-29 17:28:00,35.4,14.1,28.50,NW,323,13.2,13.2,41,0.00,,,0.00,VWS V14.01,2013-01-29 23:28:00,
2013-01-29 17:33:00,35.4,14.1,28.50,North,353,12.3,12.3,41,0.00,,,0.00,VWS V14.01,2013-01-29 23:33:00,
2013-01-29 17:38:00,35.4,14.1,28.50,NNW,346,7.6,7.6,41,0.00,,,0.00,VWS V14.01,2013-01-29 23:38:00,
2013-01-29 17:43:00,35.2,13.4,28.50,NW,316,5.4,5.4,40,0.00,,,0.00,VWS V14.01,2013-01-29 23:43:00,
2013-01-29 17:48:00,35.2,13.4,28.50,North,353,8.3,8.3,40,0.00,,,0.00,VWS V14.01,2013-01-29 23:48:00,
2013-01-29 17:53:00,35.2,13.4,28.50,North,349,11.0,11.0,40,0.00,,,0.00,VWS V14.01,2013-01-29 23:53:00,
2013-01-29 17:58:00,35.2,13.4,28.50,NNW,335,8.1,8.1,40,0.00,,,0.00,VWS V14.01,2013-01-29 23:58:00,
2013-01-29 18:03:00,35.2,13.4,28.50,North,11,12.8,12.8,40,0.00,,,0.00,VWS V14.01,2013-01-30 00:03:00,
2013-01-29 18:08:00,35.2,13.4,28.50,NW,324,7.6,7.6,40,0.00,,,0.00,VWS V14.01,2013-01-30 00:08:00,
2013-01-29 18:13:00,35.2,13.4,28.50,NNW,341,8.3,8.7,40,0.00,,,0.00,VWS V14.01,2013-01-30 00:13:00,
2013-01-29 18:18:00,35.2,13.4,28.50,NW,326,11.0,11.0,40,0.00,,,0.00,VWS V14.01,2013-01-30 00:18:00,
2013-01-29 18:23:00,35.2,12.8,28.50,NNW,346,13.2,13.2,39,0.00,,,0.00,VWS V14.01,2013-01-30 00:23:00,
2013-01-29 18:28:00,35.2,12.8,28.50,NNW,342,9.2,9.2,39,0.00,,,0.00,VWS V14.01,2013-01-30 00:28:00,
2013-01-29 18:33:00,35.2,12.8,28.50,NNW,332,7.6,7.6,39,0.00,,,0.00,VWS V14.01,2013-01-30 00:33:00,
2013-01-29 18:38:00,35.1,12.6,28.50,North,357,10.5,10.5,39,0.00,,,0.00,VWS V14.01,2013-01-30 00:38:00,
2013-01-29 18:43:00,35.1,12.6,28.50,NNE,27,8.7,8.7,39,0.00,,,0.00,VWS V14.01,2013-01-30 00:43:00,
2013-01-29 18:48:00,35.1,12.6,28.50,North,349,10.5,10.5,39,0.00,,,0.00,VWS V14.01,2013-01-30 00:48:00,
2013-01-29 18:53:00,35.2,12.8,28.50,North,357,5.4,5.4,39,0.00,,,0.00,VWS V14.01,2013-01-30 00:53:00,
2013-01-29 18:58:00,35.2,12.8,28.53,North,6,10.1,10.1,39,0.00,,,0.00,VWS V14.01,2013-01-30 00:58:00,
2013-01-29 19:03:00,35.1,12.6,28.53,NNW,333,7.6,10.1,39,0.00,,,0.00,VWS V14.01,2013-01-30 01:03:00,
2013-01-29 19:08:00,35.1,12.6,28.53,North,349,6.3,6.3,39,0.00,,,0.00,VWS V14.01,2013-01-30 01:08:00,
2013-01-29 19:13:00,35.1,13.2,28.50,NNW,342,8.3,8.3,40,0.00,,,0.00,VWS V14.01,2013-01-30 01:13:00,
2013-01-29 19:18:00,35.1,13.2,28.50,NNW,345,11.0,11.0,40,0.00,,,0.00,VWS V14.01,2013-01-30 01:18:00,
2013-01-29 19:23:00,35.1,13.2,28.50,NNW,346,9.2,9.2,40,0.00,,,0.00,VWS V14.01,2013-01-30 01:23:00,
2013-01-29 19:28:00,35.1,13.2,28.50,NNW,327,13.2,13.2,40,0.00,,,0.00,VWS V14.01,2013-01-30 01:28:00,
2013-01-29 19:33:00,35.1,13.2,28.50,NNW,338,8.1,10.1,40,0.00,,,0.00,VWS V14.01,2013-01-30 01:33:00,
2013-01-29 19:38:00,35.1,13.2,28.50,NNW,327,12.8,12.8,40,0.00,,,0.00,VWS V14.01,2013-01-30 01:38:00,
2013-01-29 19:43:00,35.1,13.2,28.50,NNW,343,12.3,12.3,40,0.00,,,0.00,VWS V14.01,2013-01-30 01:43:00,
2013-01-29 19:48:00,34.9,13.6,28.50,NNW,343,14.5,14.5,41,0.00,,,0.00,VWS V14.01,2013-01-30 01:48:00,
2013-01-29 19:53:00,34.9,13.0,28.50,NNW,344,5.4,5.4,40,0.00,,,0.00,VWS V14.01,2013-01-30 01:53:00,
2013-01-29 19:58:00,34.9,13.0,28.50,NNW,336,10.1,10.1,40,0.00,,,0.00,VWS V14.01,2013-01-30 01:58:00,
2013-01-29 20:03:00,34.9,13.0,28.53,NW,322,8.1,8.1,40,0.00,,,0.00,VWS V14.01,2013-01-30 02:03:00,
2013-01-29 20:07:00,34.9,13.0,28.53,NW,326,11.0,11.0,40,0.00,,,0.00,VWS V14.01,2013-01-30 02:07:00,
2013-01-29 20:12:00,34.9,13.0,28.53,NNW,328,8.1,8.1,40,0.00,,,0.00,VWS V14.01,2013-01-30 02:12:00,
2013-01-29 20:17:00,34.9,13.0,28.53,NNW,340,6.3,6.3,40,0.00,,,0.00,VWS V14.01,2013-01-30 02:17:00,
2013-01-29 20:22:00,34.9,13.0,28.53,NW,326,5.8,5.8,40,0.00,,,0.00,VWS V14.01,2013-01-30 02:22:00,
2013-01-29 20:27:00,34.9,13.0,28.53,NW,317,6.7,6.7,40,0.00,,,0.00,VWS V14.01,2013-01-30 02:27:00,
2013-01-29 20:32:00,34.9,13.0,28.56,NW,321,5.4,5.4,40,0.00,,,0.00,VWS V14.01,2013-01-30 02:32:00,
2013-01-29 20:37:00,34.7,13.4,28.56,NNW,343,4.9,4.9,41,0.00,,,0.00,VWS V14.01,2013-01-30 02:37:00,
2013-01-29 20:42:00,34.7,13.4,28.56,NNW,346,8.3,8.3,41,0.00,,,0.00,VWS V14.01,2013-01-30 02:42:00,
2013-01-29 20:47:00,34.5,13.8,28.56,NNW,342,8.7,8.7,42,0.00,,,0.00,VWS V14.01,2013-01-30 02:47:00,
2013-01-29 20:52:00,34.5,13.8,28.56,NNW,327,8.3,10.5,42,0.00,,,0.00,VWS V14.01,2013-01-30 02:52:00,
2013-01-29 20:57:00,34.5,13.8,28.56,NNW,342,5.8,8.3,42,0.00,,,0.00,VWS V14.01,2013-01-30 02:57:00,
2013-01-29 21:02:00,34.5,13.8,28.56,NNW,329,8.7,8.7,42,0.00,,,0.00,VWS V14.01,2013-01-30 03:02:00,
2013-01-29 21:07:00,34.5,13.8,28.56,NNW,345,10.5,10.5,42,0.00,,,0.00,VWS V14.01,2013-01-30 03:07:00,
2013-01-29 21:12:00,34.3,13.6,28.53,NW,321,8.7,12.3,42,0.00,,,0.00,VWS V14.01,2013-01-30 03:12:00,
2013-01-29 21:17:00,34.3,13.6,28.53,NNW,341,5.8,5.8,42,0.00,,,0.00,VWS V14.01,2013-01-30 03:17:00,
2013-01-29 21:22:00,34.3,13.6,28.50,NNW,329,8.3,8.3,42,0.00,,,0.00,VWS V14.01,2013-01-30 03:22:00,
2013-01-29 21:27:00,34.2,13.5,28.50,NNW,343,9.2,9.2,42,0.00,,,0.00,VWS V14.01,2013-01-30 03:27:00,
2013-01-29 21:32:00,34.2,13.5,28.50,NNW,343,11.0,11.0,42,0.00,,,0.00,VWS V14.01,2013-01-30 03:32:00,
2013-01-29 21:37:00,34.2,12.9,28.50,NNW,343,8.1,8.1,41,0.00,,,0.00,VWS V14.01,2013-01-30 03:37:00,
2013-01-29 21:42:00,34.0,12.2,28.50,NW,326,11.0,11.0,40,0.00,,,0.00,VWS V14.01,2013-01-30 03:42:00,
2013-01-29 21:47:00,34.0,12.2,28.50,NNW,330,15.4,15.4,40,0.00,,,0.00,VWS V14.01,2013-01-30 03:47:00,
2013-01-29 21:52:00,34.0,11.6,28.50,NNW,346,10.5,10.5,39,0.00,,,0.00,VWS V14.01,2013-01-30 03:52:00,
2013-01-29 21:57:00,34.0,11.6,28.50,NW,317,13.2,13.2,39,0.00,,,0.00,VWS V14.01,2013-01-30 03:57:00,
2013-01-29 22:02:00,34.0,12.2,28.50,NW,326,18.8,18.8,40,0.00,,,0.00,VWS V14.01,2013-01-30 04:02:00,
2013-01-29 22:07:00,34.0,11.6,28.50,NNW,331,10.1,12.8,39,0.00,,,0.00,VWS V14.01,2013-01-30 04:07:00,
2013-01-29 22:12:00,33.8,11.5,28.50,NNW,328,10.1,10.1,39,0.00,,,0.00,VWS V14.01,2013-01-30 04:12:00,
2013-01-29 22:17:00,33.8,11.5,28.50,NNW,344,8.3,8.3,39,0.00,,,0.00,VWS V14.01,2013-01-30 04:17:00,
2013-01-29 22:22:00,33.8,11.5,28.50,NW,326,11.9,11.9,39,0.00,,,0.00,VWS V14.01,2013-01-30 04:22:00,
2013-01-29 22:27:00,33.6,11.3,28.50,NNW,340,17.9,17.9,39,0.00,,,0.00,VWS V14.01,2013-01-30 04:27:00,
2013-01-29 22:32:00,33.6,11.3,28.53,NNW,346,13.2,13.2,39,0.00,,,0.00,VWS V14.01,2013-01-30 04:32:00,
2013-01-29 22:37:00,33.6,11.3,28.53,NNW,341,11.0,11.0,39,0.00,,,0.00,VWS V14.01,2013-01-30 04:37:00,
2013-01-29 22:42:00,33.6,11.9,28.53,North,0,8.3,9.6,40,0.00,,,0.00,VWS V14.01,2013-01-30 04:42:00,
2013-01-29 22:47:00,33.4,11.7,28.53,NNW,339,6.3,6.3,40,0.00,,,0.00,VWS V14.01,2013-01-30 04:47:00,
2013-01-29 22:52:00,33.4,11.7,28.53,North,0,9.6,9.6,40,0.00,,,0.00,VWS V14.01,2013-01-30 04:52:00,
2013-01-29 22:57:00,33.3,11.6,28.50,NW,314,17.4,17.4,40,0.00,,,0.00,VWS V14.01,2013-01-30 04:57:00,
2013-01-29 23:00:00,33.3,11.6,28.50,NNW,332,15.4,15.4,40,0.00,,,0.00,VWS V14.01,2013-01-30 05:00:00,
2013-01-29 23:02:00,33.3,11.6,28.50,North,349,15.0,15.0,40,0.00,,,0.00,VWS V14.01,2013-01-30 05:02:00,
2013-01-29 23:03:00,33.3,11.6,28.50,North,2,12.8,15.0,40,0.00,,,0.00,VWS V14.01,2013-01-30 05:03:00,
2013-01-29 23:08:00,33.3,11.6,28.50,NNW,336,8.7,8.7,40,0.00,,,0.00,VWS V14.01,2013-01-30 05:08:00,
2013-01-29 23:13:00,32.7,13.2,28.53,North,353,13.2,13.2,44,0.00,,,0.00,VWS V14.01,2013-01-30 05:13:00,
2013-01-29 23:18:00,32.7,13.2,28.53,NNW,327,8.3,8.3,44,0.00,,,0.00,VWS V14.01,2013-01-30 05:18:00,
2013-01-29 23:23:00,32.5,15.0,28.53,NNW,346,8.3,8.3,48,0.00,,,0.00,VWS V14.01,2013-01-30 05:23:00,
2013-01-29 23:28:00,32.5,15.0,28.53,NNW,345,18.3,18.3,48,0.00,,,0.00,VWS V14.01,2013-01-30 05:28:00,
2013-01-29 23:33:00,32.2,15.2,28.53,North,349,12.8,12.8,49,0.00,,,0.00,VWS V14.01,2013-01-30 05:33:00,
2013-01-29 23:38:00,31.8,15.8,28.53,NNW,327,15.4,15.4,51,0.00,,,0.00,VWS V14.01,2013-01-30 05:38:00,
2013-01-29 23:43:00,31.8,16.6,28.50,NNW,335,12.8,15.4,53,0.00,,,0.00,VWS V14.01,2013-01-30 05:43:00,
2013-01-29 23:48:00,31.5,16.8,28.50,NNW,337,13.6,13.6,54,0.00,,,0.00,VWS V14.01,2013-01-30 05:48:00,
2013-01-29 23:53:00,31.5,16.8,28.50,NW,323,17.0,17.0,54,0.00,,,0.00,VWS V14.01,2013-01-30 05:53:00,
2013-01-29 23:58:00,31.5,16.8,28.50,NNW,328,13.2,13.2,54,0.00,,,0.00,VWS V14.01,2013-01-30 05:58:00,